sensor_id;sensor_type;location;lat;lon;timestamp;P1;durP1;ratioP1;P2;durP2;ratioP2
13432;SDS011;6789;47.678;9.158;2023-05-31T00:02:14;6.25;;;3.78;;
13432;SDS011;6789;47.678;9.158;2023-05-31T00:07:06;5.25;;;3.42;;
13432;SDS011;6789;47.678;9.158;2023-05-31T00:11:58;6.10;;;3.13;;
13432;SDS011;6789;47.678;9.158;2023-05-31T00:16:51;5.32;;;3.53;;
13432;SDS011;6789;47.678;9.158;2023-05-31T00:22:03;4.78;;;3.30;;
13432;SDS011;6789;47.678;9.158;2023-05-31T00:26:55;4.70;;;2.85;;
13432;SDS011;6789;47.678;9.158;2023-05-31T00:31:47;5.10;;;3.30;;
13432;SDS011;6789;47.678;9.158;2023-05-31T00:36:39;5.18;;;3.13;;
13432;SDS011;6789;47.678;9.158;2023-05-31T00:41:30;4.15;;;3.13;;
13432;SDS011;6789;47.678;9.158;2023-05-31T00:51:18;5.30;;;3.42;;
13432;SDS011;6789;47.678;9.158;2023-05-31T00:56:12;5.68;;;3.42;;
13432;SDS011;6789;47.678;9.158;2023-05-31T01:01:05;4.60;;;3.28;;
13432;SDS011;6789;47.678;9.158;2023-05-31T01:05:58;9.13;;;3.33;;
13432;SDS011;6789;47.678;9.158;2023-05-31T01:10:51;5.13;;;3.58;;
13432;SDS011;6789;47.678;9.158;2023-05-31T01:15:56;5.75;;;3.25;;
13432;SDS011;6789;47.678;9.158;2023-05-31T01:20:58;5.65;;;3.55;;
13432;SDS011;6789;47.678;9.158;2023-05-31T01:26:03;4.03;;;3.20;;
13432;SDS011;6789;47.678;9.158;2023-05-31T01:31:08;5.60;;;3.60;;
13432;SDS011;6789;47.678;9.158;2023-05-31T01:36:07;6.82;;;3.40;;
13432;SDS011;6789;47.678;9.158;2023-05-31T01:40:59;8.18;;;3.75;;
13432;SDS011;6789;47.678;9.158;2023-05-31T01:45:53;5.88;;;3.53;;
13432;SDS011;6789;47.678;9.158;2023-05-31T01:50:47;4.80;;;3.53;;
13432;SDS011;6789;47.678;9.158;2023-05-31T01:55:41;4.35;;;3.58;;
13432;SDS011;6789;47.678;9.158;2023-05-31T02:00:34;6.97;;;3.75;;
13432;SDS011;6789;47.678;9.158;2023-05-31T02:05:26;9.90;;;3.75;;
13432;SDS011;6789;47.678;9.158;2023-05-31T02:10:18;6.78;;;3.47;;
13432;SDS011;6789;47.678;9.158;2023-05-31T02:15:11;5.07;;;3.15;;
13432;SDS011;6789;47.678;9.158;2023-05-31T02:20:04;5.80;;;3.50;;
13432;SDS011;6789;47.678;9.158;2023-05-31T02:24:57;5.82;;;3.50;;
13432;SDS011;6789;47.678;9.158;2023-05-31T02:29:49;8.20;;;4.00;;
13432;SDS011;6789;47.678;9.158;2023-05-31T02:34:41;7.30;;;3.35;;
13432;SDS011;6789;47.678;9.158;2023-05-31T02:39:33;7.90;;;3.60;;
13432;SDS011;6789;47.678;9.158;2023-05-31T02:44:25;7.63;;;3.70;;
13432;SDS011;6789;47.678;9.158;2023-05-31T02:49:17;8.93;;;3.70;;
13432;SDS011;6789;47.678;9.158;2023-05-31T02:54:08;5.20;;;3.47;;
13432;SDS011;6789;47.678;9.158;2023-05-31T02:59:00;6.80;;;3.90;;
13432;SDS011;6789;47.678;9.158;2023-05-31T03:03:52;7.82;;;3.72;;
13432;SDS011;6789;47.678;9.158;2023-05-31T03:08:44;6.63;;;3.50;;
13432;SDS011;6789;47.678;9.158;2023-05-31T03:13:37;6.63;;;3.92;;
13432;SDS011;6789;47.678;9.158;2023-05-31T03:18:29;9.15;;;3.30;;
13432;SDS011;6789;47.678;9.158;2023-05-31T03:23:20;7.18;;;3.63;;
13432;SDS011;6789;47.678;9.158;2023-05-31T03:28:12;5.65;;;3.22;;
13432;SDS011;6789;47.678;9.158;2023-05-31T03:33:04;6.07;;;3.10;;
13432;SDS011;6789;47.678;9.158;2023-05-31T03:37:56;5.45;;;3.70;;
13432;SDS011;6789;47.678;9.158;2023-05-31T03:42:48;5.05;;;3.60;;
13432;SDS011;6789;47.678;9.158;2023-05-31T03:47:40;5.85;;;3.55;;
13432;SDS011;6789;47.678;9.158;2023-05-31T03:52:32;6.50;;;3.47;;
13432;SDS011;6789;47.678;9.158;2023-05-31T03:57:26;4.18;;;3.05;;
13432;SDS011;6789;47.678;9.158;2023-05-31T04:02:18;7.30;;;3.50;;
13432;SDS011;6789;47.678;9.158;2023-05-31T04:07:18;4.28;;;2.92;;
13432;SDS011;6789;47.678;9.158;2023-05-31T04:12:12;4.25;;;3.33;;
13432;SDS011;6789;47.678;9.158;2023-05-31T04:17:18;4.63;;;3.10;;
13432;SDS011;6789;47.678;9.158;2023-05-31T04:22:25;4.60;;;3.00;;
13432;SDS011;6789;47.678;9.158;2023-05-31T04:27:17;3.78;;;2.75;;
13432;SDS011;6789;47.678;9.158;2023-05-31T04:32:10;7.05;;;3.10;;
13432;SDS011;6789;47.678;9.158;2023-05-31T04:37:06;5.53;;;3.08;;
13432;SDS011;6789;47.678;9.158;2023-05-31T04:42:00;5.60;;;2.92;;
13432;SDS011;6789;47.678;9.158;2023-05-31T04:47:06;4.88;;;3.10;;
13432;SDS011;6789;47.678;9.158;2023-05-31T04:52:00;4.93;;;2.90;;
13432;SDS011;6789;47.678;9.158;2023-05-31T04:56:53;4.63;;;2.50;;
13432;SDS011;6789;47.678;9.158;2023-05-31T05:01:47;5.70;;;3.00;;
13432;SDS011;6789;47.678;9.158;2023-05-31T05:06:53;4.68;;;2.80;;
13432;SDS011;6789;47.678;9.158;2023-05-31T05:11:45;5.22;;;2.85;;
13432;SDS011;6789;47.678;9.158;2023-05-31T05:16:51;4.25;;;2.60;;
13432;SDS011;6789;47.678;9.158;2023-05-31T05:21:57;4.40;;;2.55;;
13432;SDS011;6789;47.678;9.158;2023-05-31T05:26:49;5.47;;;2.90;;
13432;SDS011;6789;47.678;9.158;2023-05-31T05:31:52;6.22;;;2.60;;
13432;SDS011;6789;47.678;9.158;2023-05-31T05:36:46;6.00;;;3.10;;
13432;SDS011;6789;47.678;9.158;2023-05-31T05:41:52;5.25;;;2.50;;
13432;SDS011;6789;47.678;9.158;2023-05-31T05:46:57;5.68;;;2.78;;
13432;SDS011;6789;47.678;9.158;2023-05-31T05:52:01;6.10;;;2.92;;
13432;SDS011;6789;47.678;9.158;2023-05-31T05:57:19;7.88;;;3.15;;
13432;SDS011;6789;47.678;9.158;2023-05-31T06:02:20;5.47;;;2.55;;
13432;SDS011;6789;47.678;9.158;2023-05-31T06:07:26;4.68;;;2.90;;
13432;SDS011;6789;47.678;9.158;2023-05-31T06:12:33;7.10;;;3.08;;
13432;SDS011;6789;47.678;9.158;2023-05-31T06:17:38;7.65;;;3.17;;
13432;SDS011;6789;47.678;9.158;2023-05-31T06:22:44;4.22;;;2.72;;
13432;SDS011;6789;47.678;9.158;2023-05-31T06:27:50;4.40;;;2.50;;
13432;SDS011;6789;47.678;9.158;2023-05-31T06:32:58;8.55;;;3.10;;
13432;SDS011;6789;47.678;9.158;2023-05-31T06:38:04;9.32;;;2.63;;
13432;SDS011;6789;47.678;9.158;2023-05-31T06:43:10;16.65;;;3.42;;
13432;SDS011;6789;47.678;9.158;2023-05-31T06:48:17;7.65;;;2.85;;
13432;SDS011;6789;47.678;9.158;2023-05-31T06:53:24;6.15;;;3.00;;
13432;SDS011;6789;47.678;9.158;2023-05-31T06:58:29;8.40;;;2.97;;
13432;SDS011;6789;47.678;9.158;2023-05-31T07:04:09;5.60;;;3.05;;
13432;SDS011;6789;47.678;9.158;2023-05-31T07:09:15;5.82;;;2.90;;
13432;SDS011;6789;47.678;9.158;2023-05-31T07:14:21;6.50;;;3.33;;
13432;SDS011;6789;47.678;9.158;2023-05-31T07:19:15;5.15;;;2.78;;
13432;SDS011;6789;47.678;9.158;2023-05-31T07:24:20;3.10;;;2.65;;
13432;SDS011;6789;47.678;9.158;2023-05-31T07:29:12;5.72;;;3.08;;
13432;SDS011;6789;47.678;9.158;2023-05-31T07:34:04;7.18;;;3.30;;
13432;SDS011;6789;47.678;9.158;2023-05-31T07:38:58;5.95;;;2.78;;
13432;SDS011;6789;47.678;9.158;2023-05-31T07:43:51;5.00;;;2.85;;
13432;SDS011;6789;47.678;9.158;2023-05-31T07:48:50;4.65;;;2.63;;
13432;SDS011;6789;47.678;9.158;2023-05-31T07:53:45;4.43;;;2.70;;
13432;SDS011;6789;47.678;9.158;2023-05-31T07:58:39;6.55;;;2.83;;
13432;SDS011;6789;47.678;9.158;2023-05-31T08:03:34;6.82;;;2.80;;
13432;SDS011;6789;47.678;9.158;2023-05-31T08:08:26;6.13;;;2.80;;
13432;SDS011;6789;47.678;9.158;2023-05-31T08:13:45;7.90;;;3.38;;
13432;SDS011;6789;47.678;9.158;2023-05-31T08:18:55;7.43;;;3.22;;
13432;SDS011;6789;47.678;9.158;2023-05-31T08:24:18;4.50;;;2.60;;
13432;SDS011;6789;47.678;9.158;2023-05-31T08:30:26;4.03;;;3.10;;
13432;SDS011;6789;47.678;9.158;2023-05-31T08:35:19;3.13;;;2.63;;
13432;SDS011;6789;47.678;9.158;2023-05-31T08:45:44;6.07;;;2.95;;
13432;SDS011;6789;47.678;9.158;2023-05-31T08:51:26;7.30;;;3.08;;
13432;SDS011;6789;47.678;9.158;2023-05-31T08:57:52;4.35;;;2.97;;
13432;SDS011;6789;47.678;9.158;2023-05-31T09:03:32;8.25;;;2.92;;
13432;SDS011;6789;47.678;9.158;2023-05-31T09:08:39;4.07;;;3.28;;
13432;SDS011;6789;47.678;9.158;2023-05-31T09:13:33;8.85;;;3.53;;
13432;SDS011;6789;47.678;9.158;2023-05-31T09:19:16;9.38;;;3.05;;
13432;SDS011;6789;47.678;9.158;2023-05-31T09:24:18;4.18;;;2.78;;
13432;SDS011;6789;47.678;9.158;2023-05-31T09:29:25;4.60;;;3.08;;
13432;SDS011;6789;47.678;9.158;2023-05-31T09:34:24;4.80;;;3.15;;
13432;SDS011;6789;47.678;9.158;2023-05-31T09:39:21;5.78;;;3.13;;
13432;SDS011;6789;47.678;9.158;2023-05-31T09:44:24;5.97;;;3.20;;
13432;SDS011;6789;47.678;9.158;2023-05-31T09:49:33;4.53;;;2.80;;
13432;SDS011;6789;47.678;9.158;2023-05-31T09:55:04;4.43;;;2.70;;
13432;SDS011;6789;47.678;9.158;2023-05-31T10:00:15;4.75;;;2.83;;
13432;SDS011;6789;47.678;9.158;2023-05-31T10:05:29;8.75;;;2.97;;
13432;SDS011;6789;47.678;9.158;2023-05-31T10:10:52;9.77;;;3.00;;
13432;SDS011;6789;47.678;9.158;2023-05-31T10:16:09;10.10;;;3.13;;
13432;SDS011;6789;47.678;9.158;2023-05-31T10:21:17;5.65;;;3.00;;
13432;SDS011;6789;47.678;9.158;2023-05-31T10:26:38;5.30;;;3.00;;
13432;SDS011;6789;47.678;9.158;2023-05-31T10:32:08;6.43;;;3.65;;
13432;SDS011;6789;47.678;9.158;2023-05-31T10:37:30;5.97;;;3.10;;
13432;SDS011;6789;47.678;9.158;2023-05-31T10:48:20;4.88;;;2.95;;
13432;SDS011;6789;47.678;9.158;2023-05-31T10:53:58;7.53;;;2.70;;
13432;SDS011;6789;47.678;9.158;2023-05-31T10:59:05;6.45;;;2.90;;
13432;SDS011;6789;47.678;9.158;2023-05-31T11:04:23;6.03;;;3.10;;
13432;SDS011;6789;47.678;9.158;2023-05-31T11:09:33;10.45;;;3.30;;
13432;SDS011;6789;47.678;9.158;2023-05-31T11:14:34;5.75;;;3.20;;
13432;SDS011;6789;47.678;9.158;2023-05-31T11:19:42;4.65;;;3.00;;
13432;SDS011;6789;47.678;9.158;2023-05-31T11:25:35;9.48;;;3.47;;
13432;SDS011;6789;47.678;9.158;2023-05-31T11:30:37;8.35;;;3.17;;
13432;SDS011;6789;47.678;9.158;2023-05-31T11:36:01;6.05;;;3.10;;
13432;SDS011;6789;47.678;9.158;2023-05-31T11:41:13;4.70;;;3.08;;
13432;SDS011;6789;47.678;9.158;2023-05-31T11:46:23;6.38;;;3.08;;
13432;SDS011;6789;47.678;9.158;2023-05-31T11:51:34;7.63;;;2.78;;
13432;SDS011;6789;47.678;9.158;2023-05-31T11:56:49;5.70;;;2.83;;
13432;SDS011;6789;47.678;9.158;2023-05-31T12:02:02;4.97;;;2.60;;
13432;SDS011;6789;47.678;9.158;2023-05-31T12:07:04;6.65;;;2.80;;
13432;SDS011;6789;47.678;9.158;2023-05-31T12:12:14;4.70;;;2.88;;
13432;SDS011;6789;47.678;9.158;2023-05-31T12:17:21;4.65;;;2.65;;
13432;SDS011;6789;47.678;9.158;2023-05-31T12:22:27;5.82;;;3.15;;
13432;SDS011;6789;47.678;9.158;2023-05-31T12:27:27;5.55;;;2.90;;
13432;SDS011;6789;47.678;9.158;2023-05-31T12:32:43;3.78;;;2.97;;
13432;SDS011;6789;47.678;9.158;2023-05-31T12:37:50;5.68;;;2.88;;
13432;SDS011;6789;47.678;9.158;2023-05-31T12:43:00;5.70;;;3.13;;
13432;SDS011;6789;47.678;9.158;2023-05-31T12:48:06;5.13;;;2.92;;
13432;SDS011;6789;47.678;9.158;2023-05-31T12:53:12;6.05;;;3.10;;
13432;SDS011;6789;47.678;9.158;2023-05-31T12:58:13;4.90;;;2.50;;
13432;SDS011;6789;47.678;9.158;2023-05-31T13:03:29;4.95;;;2.80;;
13432;SDS011;6789;47.678;9.158;2023-05-31T13:08:22;9.15;;;3.20;;
13432;SDS011;6789;47.678;9.158;2023-05-31T13:13:29;8.35;;;3.45;;
13432;SDS011;6789;47.678;9.158;2023-05-31T13:18:34;4.85;;;2.70;;
13432;SDS011;6789;47.678;9.158;2023-05-31T13:23:30;4.18;;;2.65;;
13432;SDS011;6789;47.678;9.158;2023-05-31T13:28:36;4.20;;;2.80;;
13432;SDS011;6789;47.678;9.158;2023-05-31T13:33:31;6.47;;;2.67;;
13432;SDS011;6789;47.678;9.158;2023-05-31T13:38:37;10.13;;;3.50;;
13432;SDS011;6789;47.678;9.158;2023-05-31T13:43:31;4.20;;;2.85;;
13432;SDS011;6789;47.678;9.158;2023-05-31T13:48:33;5.50;;;2.60;;
13432;SDS011;6789;47.678;9.158;2023-05-31T13:53:44;5.93;;;2.80;;
13432;SDS011;6789;47.678;9.158;2023-05-31T13:58:51;7.13;;;3.10;;
13432;SDS011;6789;47.678;9.158;2023-05-31T14:03:51;3.67;;;2.50;;
13432;SDS011;6789;47.678;9.158;2023-05-31T14:08:47;7.78;;;2.78;;
13432;SDS011;6789;47.678;9.158;2023-05-31T14:13:53;7.72;;;2.50;;
13432;SDS011;6789;47.678;9.158;2023-05-31T14:18:59;9.35;;;2.55;;
13432;SDS011;6789;47.678;9.158;2023-05-31T14:29:25;6.30;;;2.60;;
13432;SDS011;6789;47.678;9.158;2023-05-31T14:34:31;5.88;;;2.63;;
13432;SDS011;6789;47.678;9.158;2023-05-31T14:39:33;7.07;;;2.92;;
13432;SDS011;6789;47.678;9.158;2023-05-31T14:44:26;4.13;;;2.40;;
13432;SDS011;6789;47.678;9.158;2023-05-31T14:49:31;9.98;;;2.60;;
13432;SDS011;6789;47.678;9.158;2023-05-31T14:54:39;5.00;;;2.40;;
13432;SDS011;6789;47.678;9.158;2023-05-31T14:59:45;5.90;;;2.42;;
13432;SDS011;6789;47.678;9.158;2023-05-31T15:04:56;5.05;;;2.47;;
13432;SDS011;6789;47.678;9.158;2023-05-31T15:10:02;6.57;;;2.40;;
13432;SDS011;6789;47.678;9.158;2023-05-31T15:14:56;5.10;;;2.60;;
13432;SDS011;6789;47.678;9.158;2023-05-31T15:20:02;6.22;;;2.25;;
13432;SDS011;6789;47.678;9.158;2023-05-31T15:25:02;4.95;;;2.50;;
13432;SDS011;6789;47.678;9.158;2023-05-31T15:30:08;5.63;;;2.83;;
13432;SDS011;6789;47.678;9.158;2023-05-31T15:35:16;12.85;;;4.00;;
13432;SDS011;6789;47.678;9.158;2023-05-31T15:40:32;3.08;;;2.13;;
13432;SDS011;6789;47.678;9.158;2023-05-31T15:45:39;5.80;;;2.40;;
13432;SDS011;6789;47.678;9.158;2023-05-31T15:50:46;7.25;;;2.92;;
13432;SDS011;6789;47.678;9.158;2023-05-31T15:56:14;5.45;;;2.53;;
13432;SDS011;6789;47.678;9.158;2023-05-31T16:01:31;5.28;;;2.42;;
13432;SDS011;6789;47.678;9.158;2023-05-31T16:06:32;6.10;;;2.38;;
13432;SDS011;6789;47.678;9.158;2023-05-31T16:11:44;4.18;;;2.05;;
13432;SDS011;6789;47.678;9.158;2023-05-31T16:16:37;4.28;;;2.15;;
13432;SDS011;6789;47.678;9.158;2023-05-31T16:21:44;5.10;;;2.28;;
13432;SDS011;6789;47.678;9.158;2023-05-31T16:26:51;7.38;;;2.42;;
13432;SDS011;6789;47.678;9.158;2023-05-31T16:32:08;4.90;;;2.10;;
13432;SDS011;6789;47.678;9.158;2023-05-31T16:37:14;3.30;;;2.17;;
13432;SDS011;6789;47.678;9.158;2023-05-31T16:42:23;4.53;;;2.45;;
13432;SDS011;6789;47.678;9.158;2023-05-31T16:47:29;2.67;;;1.80;;
13432;SDS011;6789;47.678;9.158;2023-05-31T16:52:25;4.57;;;2.40;;
13432;SDS011;6789;47.678;9.158;2023-05-31T16:57:31;4.82;;;2.20;;
13432;SDS011;6789;47.678;9.158;2023-05-31T17:02:29;5.07;;;2.20;;
13432;SDS011;6789;47.678;9.158;2023-05-31T17:07:36;7.28;;;2.40;;
13432;SDS011;6789;47.678;9.158;2023-05-31T17:12:42;3.58;;;2.30;;
13432;SDS011;6789;47.678;9.158;2023-05-31T17:17:43;3.95;;;2.22;;
13432;SDS011;6789;47.678;9.158;2023-05-31T17:22:37;4.95;;;2.22;;
13432;SDS011;6789;47.678;9.158;2023-05-31T17:27:46;5.65;;;2.22;;
13432;SDS011;6789;47.678;9.158;2023-05-31T17:32:49;5.55;;;1.92;;
13432;SDS011;6789;47.678;9.158;2023-05-31T17:37:44;3.42;;;2.00;;
13432;SDS011;6789;47.678;9.158;2023-05-31T17:42:50;8.23;;;2.20;;
13432;SDS011;6789;47.678;9.158;2023-05-31T17:47:47;6.28;;;2.30;;
13432;SDS011;6789;47.678;9.158;2023-05-31T17:52:53;6.20;;;2.30;;
13432;SDS011;6789;47.678;9.158;2023-05-31T17:57:47;3.25;;;2.40;;
13432;SDS011;6789;47.678;9.158;2023-05-31T18:02:53;4.15;;;3.00;;
13432;SDS011;6789;47.678;9.158;2023-05-31T18:07:45;3.60;;;2.40;;
13432;SDS011;6789;47.678;9.158;2023-05-31T18:12:51;9.65;;;3.75;;
13432;SDS011;6789;47.678;9.158;2023-05-31T18:17:50;6.45;;;4.07;;
13432;SDS011;6789;47.678;9.158;2023-05-31T18:22:46;4.82;;;2.45;;
13432;SDS011;6789;47.678;9.158;2023-05-31T18:27:52;8.15;;;3.60;;
13432;SDS011;6789;47.678;9.158;2023-05-31T18:33:02;4.18;;;2.28;;
13432;SDS011;6789;47.678;9.158;2023-05-31T18:38:08;3.63;;;2.40;;
13432;SDS011;6789;47.678;9.158;2023-05-31T18:43:03;3.00;;;2.15;;
13432;SDS011;6789;47.678;9.158;2023-05-31T18:47:56;6.95;;;2.17;;
13432;SDS011;6789;47.678;9.158;2023-05-31T18:52:48;3.35;;;2.42;;
13432;SDS011;6789;47.678;9.158;2023-05-31T18:57:54;4.47;;;2.58;;
13432;SDS011;6789;47.678;9.158;2023-05-31T19:03:00;4.68;;;2.50;;
13432;SDS011;6789;47.678;9.158;2023-05-31T19:07:53;6.65;;;2.83;;
13432;SDS011;6789;47.678;9.158;2023-05-31T19:12:59;3.78;;;2.55;;
13432;SDS011;6789;47.678;9.158;2023-05-31T19:18:05;5.47;;;2.67;;
13432;SDS011;6789;47.678;9.158;2023-05-31T19:23:11;2.95;;;2.42;;
13432;SDS011;6789;47.678;9.158;2023-05-31T19:28:04;6.75;;;2.40;;
13432;SDS011;6789;47.678;9.158;2023-05-31T19:33:10;3.67;;;2.67;;
13432;SDS011;6789;47.678;9.158;2023-05-31T19:38:03;5.15;;;2.90;;
13432;SDS011;6789;47.678;9.158;2023-05-31T19:43:09;4.13;;;2.50;;
13432;SDS011;6789;47.678;9.158;2023-05-31T19:48:05;4.85;;;2.42;;
13432;SDS011;6789;47.678;9.158;2023-05-31T19:52:59;5.80;;;2.53;;
13432;SDS011;6789;47.678;9.158;2023-05-31T19:57:51;3.42;;;3.05;;
13432;SDS011;6789;47.678;9.158;2023-05-31T20:02:44;3.60;;;2.38;;
13432;SDS011;6789;47.678;9.158;2023-05-31T20:07:50;3.15;;;2.38;;
13432;SDS011;6789;47.678;9.158;2023-05-31T20:12:51;3.88;;;2.70;;
13432;SDS011;6789;47.678;9.158;2023-05-31T20:18:00;6.45;;;2.88;;
13432;SDS011;6789;47.678;9.158;2023-05-31T20:23:08;5.07;;;2.90;;
13432;SDS011;6789;47.678;9.158;2023-05-31T20:28:14;4.55;;;2.80;;
13432;SDS011;6789;47.678;9.158;2023-05-31T20:33:07;4.97;;;2.78;;
13432;SDS011;6789;47.678;9.158;2023-05-31T20:38:00;3.42;;;2.72;;
13432;SDS011;6789;47.678;9.158;2023-05-31T20:42:55;4.50;;;2.90;;
13432;SDS011;6789;47.678;9.158;2023-05-31T20:47:56;4.03;;;2.88;;
13432;SDS011;6789;47.678;9.158;2023-05-31T20:52:57;4.97;;;2.40;;
13432;SDS011;6789;47.678;9.158;2023-05-31T20:58:04;5.90;;;2.75;;
13432;SDS011;6789;47.678;9.158;2023-05-31T21:03:14;7.82;;;3.22;;
13432;SDS011;6789;47.678;9.158;2023-05-31T21:08:21;4.72;;;2.90;;
13432;SDS011;6789;47.678;9.158;2023-05-31T21:13:18;4.07;;;2.90;;
13432;SDS011;6789;47.678;9.158;2023-05-31T21:18:14;4.85;;;2.88;;
13432;SDS011;6789;47.678;9.158;2023-05-31T21:23:12;9.38;;;3.55;;
13432;SDS011;6789;47.678;9.158;2023-05-31T21:28:10;7.95;;;3.45;;
13432;SDS011;6789;47.678;9.158;2023-05-31T21:33:03;4.57;;;3.03;;
13432;SDS011;6789;47.678;9.158;2023-05-31T21:37:55;4.80;;;3.33;;
13432;SDS011;6789;47.678;9.158;2023-05-31T21:42:49;4.10;;;2.97;;
13432;SDS011;6789;47.678;9.158;2023-05-31T21:47:51;4.28;;;2.97;;
13432;SDS011;6789;47.678;9.158;2023-05-31T21:52:52;5.25;;;2.95;;
13432;SDS011;6789;47.678;9.158;2023-05-31T21:57:44;4.10;;;2.80;;
13432;SDS011;6789;47.678;9.158;2023-05-31T22:02:36;6.55;;;3.45;;
13432;SDS011;6789;47.678;9.158;2023-05-31T22:07:31;6.95;;;3.30;;
13432;SDS011;6789;47.678;9.158;2023-05-31T22:12:28;4.70;;;3.00;;
13432;SDS011;6789;47.678;9.158;2023-05-31T22:17:20;6.53;;;3.30;;
13432;SDS011;6789;47.678;9.158;2023-05-31T22:22:27;4.53;;;3.08;;
13432;SDS011;6789;47.678;9.158;2023-05-31T22:27:21;5.85;;;2.97;;
13432;SDS011;6789;47.678;9.158;2023-05-31T22:32:14;5.10;;;3.00;;
13432;SDS011;6789;47.678;9.158;2023-05-31T22:37:08;5.13;;;3.22;;
13432;SDS011;6789;47.678;9.158;2023-05-31T22:42:01;5.00;;;3.42;;
13432;SDS011;6789;47.678;9.158;2023-05-31T22:46:53;4.95;;;3.20;;
13432;SDS011;6789;47.678;9.158;2023-05-31T22:51:46;8.82;;;3.78;;
13432;SDS011;6789;47.678;9.158;2023-05-31T22:56:40;7.97;;;3.70;;
13432;SDS011;6789;47.678;9.158;2023-05-31T23:01:32;6.70;;;3.35;;
13432;SDS011;6789;47.678;9.158;2023-05-31T23:06:24;5.95;;;3.10;;
13432;SDS011;6789;47.678;9.158;2023-05-31T23:11:16;5.97;;;3.55;;
13432;SDS011;6789;47.678;9.158;2023-05-31T23:16:09;4.90;;;3.20;;
13432;SDS011;6789;47.678;9.158;2023-05-31T23:21:00;6.68;;;3.72;;
13432;SDS011;6789;47.678;9.158;2023-05-31T23:25:53;8.00;;;3.90;;
13432;SDS011;6789;47.678;9.158;2023-05-31T23:30:45;7.22;;;4.00;;
13432;SDS011;6789;47.678;9.158;2023-05-31T23:35:37;6.75;;;3.85;;
13432;SDS011;6789;47.678;9.158;2023-05-31T23:40:29;6.10;;;3.40;;
13432;SDS011;6789;47.678;9.158;2023-05-31T23:45:21;9.32;;;3.58;;
13432;SDS011;6789;47.678;9.158;2023-05-31T23:50:13;3.85;;;3.03;;
13432;SDS011;6789;47.678;9.158;2023-05-31T23:55:05;5.13;;;3.15;;
13432;SDS011;6789;47.678;9.158;2023-05-31T23:59:57;5.18;;;3.30;;
